createdAt,value
2018-12-29T00:02:25.774Z,22.93
2018-12-29T00:04:52.978Z,20.73
2018-12-29T00:07:20.428Z,23.57
2018-12-29T00:09:48.008Z,21.00
2018-12-29T00:12:15.201Z,23.17
2018-12-29T00:14:42.464Z,20.60
2018-12-29T00:17:09.617Z,24.20
2018-12-29T00:19:36.779Z,23.73
2018-12-29T00:22:04.073Z,22.20
2018-12-29T00:24:31.277Z,20.80
2018-12-29T00:26:58.455Z,21.20
2018-12-29T00:29:25.697Z,19.20
2018-12-29T00:31:52.846Z,21.70
2018-12-29T00:34:20.039Z,20.93
2018-12-29T00:36:47.430Z,21.53
2018-12-29T00:39:14.608Z,20.67
2018-12-29T00:41:41.666Z,21.20
2018-12-29T00:44:08.875Z,22.00
2018-12-29T00:46:36.036Z,22.27
2018-12-29T00:49:03.201Z,23.60
2018-12-29T00:51:30.695Z,22.13
2018-12-29T00:53:57.889Z,22.07
2018-12-29T00:56:25.045Z,23.50
2018-12-29T00:58:52.259Z,23.03
2018-12-29T01:01:19.407Z,21.80
2018-12-29T01:03:46.629Z,21.73
2018-12-29T01:06:14.153Z,22.50
2018-12-29T01:08:41.313Z,20.33
2018-12-29T01:11:08.813Z,21.77
2018-12-29T01:13:36.279Z,20.67
2018-12-29T01:16:03.363Z,19.40
2018-12-29T01:18:30.569Z,20.30
2018-12-29T01:20:57.681Z,19.53
2018-12-29T01:23:24.736Z,19.20
2018-12-29T01:25:52.486Z,21.93
2018-12-29T01:28:20.535Z,19.67
2018-12-29T01:30:47.775Z,19.03
2018-12-29T01:33:14.847Z,19.70
2018-12-29T01:35:41.936Z,20.27
2018-12-29T01:38:09.388Z,22.10
2018-12-29T01:40:36.541Z,20.90
2018-12-29T01:43:03.770Z,21.40
2018-12-29T01:45:30.965Z,21.30
2018-12-29T01:47:58.003Z,21.43
2018-12-29T01:50:25.207Z,22.17
2018-12-29T01:52:52.383Z,22.90
2018-12-29T01:55:19.539Z,21.30
2018-12-29T01:57:46.750Z,23.27
2018-12-29T02:00:13.804Z,22.27
2018-12-29T02:02:41.021Z,20.23
2018-12-29T02:05:11.958Z,20.53
2018-12-29T02:07:39.129Z,20.97
2018-12-29T02:10:06.223Z,21.73
2018-12-29T02:12:33.736Z,19.90
2018-12-29T02:15:00.912Z,20.90
2018-12-29T02:17:28.089Z,23.17
2018-12-29T02:19:55.305Z,20.67
2018-12-29T02:22:22.441Z,21.83
2018-12-29T02:24:49.617Z,21.63
2018-12-29T02:27:16.790Z,20.53
2018-12-29T02:29:43.999Z,20.50
2018-12-29T02:32:11.154Z,19.50
2018-12-29T02:34:38.359Z,22.37
2018-12-29T02:37:05.518Z,21.57
2018-12-29T02:39:32.697Z,21.77
2018-12-29T02:42:00.086Z,20.63
2018-12-29T02:44:27.511Z,21.20
2018-12-29T02:46:54.570Z,21.13
2018-12-29T02:49:21.826Z,19.57
2018-12-29T02:51:49.015Z,21.63
2018-12-29T02:54:16.212Z,19.83
2018-12-29T02:56:43.419Z,22.03
2018-12-29T02:59:10.609Z,21.83
2018-12-29T03:01:37.771Z,19.13
2018-12-29T03:04:04.951Z,22.50
2018-12-29T03:06:32.159Z,21.30
2018-12-29T03:08:59.372Z,20.23
2018-12-29T03:11:26.557Z,19.57
2018-12-29T03:13:53.719Z,20.57
2018-12-29T03:16:20.935Z,21.03
2018-12-29T03:18:48.114Z,19.03
2018-12-29T03:21:16.177Z,18.43
2018-12-29T03:23:43.247Z,17.33
2018-12-29T03:26:10.453Z,18.37
2018-12-29T03:28:37.504Z,17.77
2018-12-29T03:31:04.685Z,17.17
2018-12-29T03:33:32.131Z,19.87
2018-12-29T03:35:59.187Z,18.70
2018-12-29T03:38:26.339Z,19.20
2018-12-29T03:40:53.649Z,19.10
2018-12-29T03:43:20.810Z,19.80
2018-12-29T03:45:49.212Z,17.47
2018-12-29T03:48:16.711Z,19.07
2018-12-29T03:50:43.770Z,19.00
2018-12-29T03:53:11.614Z,19.00
2018-12-29T03:55:39.330Z,18.77
2018-12-29T03:58:06.484Z,19.53
2018-12-29T04:00:33.946Z,19.10
2018-12-29T04:03:01.157Z,19.13
2018-12-29T04:05:28.238Z,18.60
2018-12-29T04:07:55.404Z,18.83
2018-12-29T04:10:22.847Z,19.00
2018-12-29T04:12:53.504Z,17.23
2018-12-29T04:15:20.871Z,19.20
2018-12-29T04:17:47.985Z,16.77
2018-12-29T04:20:15.157Z,18.57
2018-12-29T04:22:42.345Z,17.50
2018-12-29T04:25:09.641Z,19.23
2018-12-29T04:27:36.804Z,19.03
2018-12-29T04:30:04.024Z,18.37
2018-12-29T04:32:31.277Z,18.20
2018-12-29T04:34:58.448Z,20.60
2018-12-29T04:37:25.595Z,19.53
2018-12-29T04:39:52.822Z,18.70
2018-12-29T04:42:19.979Z,18.07
2018-12-29T04:44:47.180Z,20.23
2018-12-29T04:47:14.379Z,20.07
2018-12-29T04:49:41.516Z,17.57
2018-12-29T04:52:10.463Z,18.80
2018-12-29T04:54:37.661Z,20.50
2018-12-29T04:57:04.709Z,19.80
2018-12-29T04:59:31.888Z,21.73
2018-12-29T05:01:59.066Z,20.50
2018-12-29T05:04:26.218Z,20.90
2018-12-29T05:06:53.367Z,19.17
2018-12-29T05:15:00.202Z,22.07
2018-12-29T05:17:27.380Z,22.00
2018-12-29T05:19:54.531Z,21.87
2018-12-29T05:22:21.817Z,22.30
2018-12-29T05:24:49.016Z,21.93
2018-12-29T05:27:16.218Z,21.70
2018-12-29T05:29:43.464Z,22.43
2018-12-29T05:32:51.442Z,20.87
2018-12-29T05:35:18.661Z,22.87
2018-12-29T05:37:45.834Z,22.90
2018-12-29T05:45:54.892Z,20.17
2018-12-29T05:48:22.074Z,22.53
2018-12-29T05:50:49.287Z,24.13
2018-12-29T05:53:35.955Z,22.37
2018-12-29T05:59:36.760Z,21.87
2018-12-29T06:02:03.947Z,21.80
2018-12-29T06:04:31.150Z,20.97
2018-12-29T06:07:17.812Z,20.33
2018-12-29T06:10:16.911Z,20.70
2018-12-29T06:12:45.354Z,21.60
2018-12-29T06:15:19.832Z,21.90
2018-12-29T06:17:46.999Z,22.07
2018-12-29T06:20:33.724Z,20.20
2018-12-29T06:28:54.603Z,18.20
2018-12-29T06:31:21.724Z,19.60
2018-12-29T06:33:48.909Z,20.50
2018-12-29T06:36:15.997Z,18.63
2018-12-29T06:38:43.183Z,19.80
2018-12-29T06:41:10.374Z,20.60
2018-12-29T06:43:57.070Z,18.93
2018-12-29T06:46:43.709Z,19.43
2018-12-29T06:49:10.887Z,18.93
2018-12-29T06:51:39.193Z,18.30
2018-12-29T06:54:16.606Z,19.70
2018-12-29T06:56:43.780Z,17.80
2018-12-29T07:02:29.614Z,18.07
2018-12-29T07:04:57.146Z,17.30
2018-12-29T07:07:43.832Z,19.00
2018-12-29T07:10:11.364Z,16.73
2018-12-29T07:12:38.635Z,17.83
2018-12-29T07:18:20.175Z,18.13
2018-12-29T07:20:47.267Z,19.70
2018-12-29T07:26:15.596Z,18.50
2018-12-29T07:28:42.725Z,18.33
2018-12-29T07:31:10.294Z,19.47
2018-12-29T07:36:15.964Z,18.50
2018-12-29T07:39:03.683Z,19.00
2018-12-29T07:41:30.876Z,17.27
2018-12-29T07:43:58.088Z,17.50
2018-12-29T07:46:25.546Z,18.67
2018-12-29T07:52:13.343Z,17.80
2018-12-29T07:54:40.428Z,18.90
2018-12-29T07:57:07.630Z,19.27
2018-12-29T07:59:34.800Z,18.83
2018-12-29T08:02:01.990Z,20.07
2018-12-29T08:04:48.763Z,19.40
2018-12-29T08:07:16.251Z,18.70
2018-12-29T08:10:24.355Z,19.47
2018-12-29T08:16:10.022Z,18.70
2018-12-29T08:21:38.210Z,18.33
2018-12-29T08:24:24.927Z,19.83
2018-12-29T08:26:52.168Z,16.57
2018-12-29T08:35:59.953Z,20.33
2018-12-29T08:38:27.123Z,20.63
2018-12-29T08:40:54.310Z,17.73
2018-12-29T08:43:21.504Z,19.90
2018-12-29T08:45:48.695Z,20.90
2018-12-29T08:48:35.366Z,19.80
2018-12-29T08:54:36.171Z,19.60
2018-12-29T08:57:23.045Z,19.23
2018-12-29T08:59:50.284Z,19.07
2018-12-29T09:08:58.834Z,20.00
2018-12-29T09:11:26.048Z,19.47
2018-12-29T09:16:54.549Z,20.50
2018-12-29T09:19:27.189Z,21.03
2018-12-29T09:22:00.292Z,19.57
2018-12-29T09:24:28.013Z,19.47
2018-12-29T09:26:55.191Z,20.70
2018-12-29T09:29:41.782Z,19.53
2018-12-29T09:38:09.139Z,20.23
2018-12-29T09:40:36.327Z,20.87
2018-12-29T09:43:03.964Z,19.20
2018-12-29T09:45:31.055Z,21.60
2018-12-29T09:51:51.386Z,19.47
2018-12-29T09:54:18.588Z,20.23
2018-12-29T09:56:45.751Z,18.97
2018-12-29T09:59:53.809Z,21.07
2018-12-29T10:02:21.040Z,20.10
2018-12-29T10:04:48.250Z,20.80
2018-12-29T10:07:15.839Z,20.73
2018-12-29T10:09:43.086Z,20.90
2018-12-29T10:12:10.341Z,19.90
2018-12-29T10:15:18.722Z,20.67
2018-12-29T10:17:46.126Z,21.63
2018-12-29T10:20:13.679Z,18.90
2018-12-29T10:22:40.875Z,19.50
2018-12-29T10:25:08.078Z,21.57
2018-12-29T10:27:47.497Z,20.27
2018-12-29T10:30:14.674Z,21.53
2018-12-29T10:33:01.492Z,20.37
2018-12-29T10:35:30.487Z,20.40
2018-12-29T10:37:57.668Z,21.50
2018-12-29T10:40:56.651Z,19.00
2018-12-29T10:43:23.832Z,18.90
2018-12-29T10:46:10.793Z,20.67
2018-12-29T10:48:37.983Z,20.07
2018-12-29T10:54:06.187Z,19.33
2018-12-29T10:56:33.817Z,20.37
2018-12-29T10:59:01.306Z,20.70
2018-12-29T11:01:30.734Z,19.30
2018-12-29T11:03:57.918Z,19.73
2018-12-29T11:09:26.597Z,19.03
2018-12-29T11:11:53.849Z,20.60
2018-12-29T11:14:40.535Z,20.43
2018-12-29T11:17:07.741Z,19.03
2018-12-29T11:19:34.962Z,20.87
2018-12-29T11:22:02.196Z,19.33
2018-12-29T11:24:31.318Z,18.20
2018-12-29T11:27:18.165Z,18.33
2018-12-29T11:29:45.353Z,19.87
2018-12-29T11:32:12.642Z,19.90
2018-12-29T11:35:20.698Z,19.67
2018-12-29T11:37:47.908Z,20.93
2018-12-29T11:40:15.105Z,19.50
2018-12-29T11:45:20.530Z,21.30
2018-12-29T11:47:50.022Z,21.37
2018-12-29T11:50:26.442Z,21.23
2018-12-29T11:53:06.374Z,20.33
2018-12-29T11:55:33.630Z,20.10
2018-12-29T11:58:08.530Z,20.90
2018-12-29T12:03:37.655Z,21.57
2018-12-29T12:06:04.787Z,20.57
2018-12-29T12:08:32.015Z,20.60
2018-12-29T12:10:59.575Z,19.83
2018-12-29T12:13:26.789Z,20.03
2018-12-29T12:18:34.032Z,21.77
2018-12-29T12:21:42.205Z,19.83
2018-12-29T12:24:28.930Z,19.97
2018-12-29T12:26:56.116Z,19.70
2018-12-29T12:29:55.083Z,19.23
2018-12-29T12:32:22.270Z,19.83
2018-12-29T12:34:57.620Z,21.30
2018-12-29T12:37:30.680Z,18.60
2018-12-29T12:40:06.241Z,19.33
2018-12-29T12:42:33.468Z,19.77
2018-12-29T12:48:19.675Z,20.07
2018-12-29T12:50:47.110Z,18.40
2018-12-29T12:53:14.279Z,19.13
2018-12-29T12:55:53.148Z,18.70
2018-12-29T12:59:09.281Z,18.77
2018-12-29T13:01:36.512Z,19.33
2018-12-29T13:04:23.159Z,20.03
2018-12-29T13:06:50.424Z,19.33
2018-12-29T13:09:17.591Z,19.13
2018-12-29T13:12:04.295Z,18.47
2018-12-29T13:20:32.313Z,21.27
2018-12-29T13:22:59.483Z,21.57
2018-12-29T13:25:26.722Z,20.53
2018-12-29T13:28:13.668Z,20.73
2018-12-29T13:31:00.347Z,20.60
2018-12-29T13:33:27.575Z,21.97
2018-12-29T13:38:53.855Z,20.40
2018-12-29T13:41:21.063Z,21.27
2018-12-29T13:46:49.580Z,21.33
2018-12-29T13:52:17.955Z,17.00
2018-12-29T13:54:45.050Z,20.07
2018-12-29T13:57:12.573Z,18.97
2018-12-29T13:59:39.708Z,19.90
2018-12-29T14:02:06.877Z,19.37
2018-12-29T14:04:34.045Z,18.40
2018-12-29T14:10:02.006Z,19.00
2018-12-29T14:12:30.981Z,18.20
2018-12-29T14:17:57.489Z,18.33
2018-12-29T14:20:24.701Z,17.10
2018-12-29T14:22:51.901Z,19.53
2018-12-29T14:25:19.133Z,17.83
2018-12-29T14:27:46.291Z,19.37
2018-12-29T14:30:13.850Z,18.60
2018-12-29T14:32:52.941Z,19.30
2018-12-29T14:35:20.161Z,19.80
2018-12-29T14:37:47.334Z,19.87
2018-12-29T14:40:42.113Z,18.87
2018-12-29T14:43:09.323Z,18.70
2018-12-29T14:48:36.617Z,19.67
2018-12-29T14:51:04.177Z,17.67
2018-12-29T14:53:33.185Z,20.60
2018-12-29T14:56:08.616Z,19.40
2018-12-29T14:58:35.825Z,18.57
2018-12-29T15:01:02.991Z,20.67
2018-12-29T15:03:30.566Z,19.10
2018-12-29T15:05:57.684Z,17.70
2018-12-29T15:08:24.863Z,18.77
2018-12-29T15:10:52.105Z,16.47
2018-12-29T15:13:40.952Z,20.13
2018-12-29T15:16:27.939Z,19.73
2018-12-29T15:19:14.577Z,18.57
2018-12-29T15:22:01.334Z,20.23
2018-12-29T15:24:48.686Z,19.10
2018-12-29T15:27:16.172Z,17.60
2018-12-29T15:29:43.387Z,20.53
2018-12-29T15:32:32.250Z,19.93
2018-12-29T15:35:07.541Z,19.23
2018-12-29T15:37:54.513Z,18.67
2018-12-29T15:40:41.141Z,21.20
2018-12-29T15:43:49.209Z,19.60
2018-12-29T15:49:37.696Z,18.90
2018-12-29T15:52:04.897Z,18.30
2018-12-29T15:55:02.971Z,19.67
2018-12-29T16:01:14.582Z,17.60
2018-12-29T16:10:16.249Z,19.27
2018-12-29T16:12:43.802Z,19.60
2018-12-29T16:15:38.727Z,19.67
2018-12-29T16:18:05.831Z,17.43
2018-12-29T16:20:32.955Z,17.80
2018-12-29T16:23:00.160Z,19.33
2018-12-29T16:25:27.340Z,18.20
2018-12-29T16:27:54.559Z,17.47
2018-12-29T16:30:43.451Z,18.57
2018-12-29T16:33:10.528Z,19.93
2018-12-29T16:35:57.132Z,19.23
2018-12-29T16:38:24.332Z,20.60
2018-12-29T16:40:57.852Z,18.87
2018-12-29T16:43:49.778Z,19.50
2018-12-29T16:46:17.457Z,19.70
2018-12-29T16:49:25.492Z,16.87
2018-12-29T16:51:52.603Z,19.53
2018-12-29T16:54:39.393Z,19.40
2018-12-29T16:57:07.109Z,19.20
2018-12-29T16:59:34.830Z,18.40
2018-12-29T17:10:43.137Z,19.13
2018-12-29T17:13:10.849Z,18.33
2018-12-29T17:15:38.953Z,18.50
2018-12-29T17:18:06.674Z,18.43
2018-12-29T17:20:54.181Z,18.23
2018-12-29T17:23:40.936Z,18.87
2018-12-29T17:26:08.332Z,19.03
2018-12-29T17:29:03.232Z,17.50
2018-12-29T17:31:30.459Z,19.13
2018-12-29T17:34:06.026Z,17.63
2018-12-29T17:36:33.270Z,18.00
2018-12-29T17:39:00.495Z,15.33
2018-12-29T17:41:27.820Z,15.77
2018-12-29T17:43:55.050Z,15.97
2018-12-29T17:46:22.260Z,14.70
2018-12-29T17:48:49.658Z,17.07
2018-12-29T17:51:17.355Z,15.50
2018-12-29T17:53:48.097Z,12.83
2018-12-29T17:56:23.764Z,13.73
2018-12-29T17:59:10.491Z,16.63
2018-12-29T18:04:37.030Z,15.10
2018-12-29T18:07:04.212Z,16.10
2018-12-29T18:09:57.150Z,14.83
2018-12-29T18:12:26.683Z,16.30
2018-12-29T18:14:53.951Z,16.53
2018-12-29T18:17:21.154Z,16.07
2018-12-29T18:19:48.429Z,15.90
2018-12-29T18:22:15.675Z,16.97
2018-12-29T18:24:42.859Z,16.00
2018-12-29T18:27:22.737Z,15.70
2018-12-29T18:29:50.581Z,15.20
2018-12-29T18:32:18.157Z,16.03
2018-12-29T18:34:45.386Z,15.37
2018-12-29T18:37:34.220Z,15.27
2018-12-29T18:40:23.884Z,14.80
2018-12-29T18:42:51.088Z,15.50
2018-12-29T18:45:59.001Z,15.27
2018-12-29T18:51:38.620Z,14.77
2018-12-29T18:54:05.843Z,13.50
2018-12-29T18:57:00.629Z,14.97
2018-12-29T18:59:27.826Z,15.17
2018-12-29T19:02:16.702Z,14.97
2018-12-29T19:04:43.908Z,15.20
2018-12-29T19:07:11.087Z,14.57
2018-12-29T19:09:38.319Z,14.37
2018-12-29T19:12:24.951Z,14.90
2018-12-29T19:17:32.315Z,14.47
2018-12-29T19:20:21.463Z,14.43
2018-12-29T19:23:08.176Z,14.50
2018-12-29T19:25:35.786Z,13.80
2018-12-29T19:28:12.116Z,15.50
2018-12-29T19:30:39.322Z,14.57
2018-12-29T19:35:54.813Z,14.20
2018-12-29T19:39:04.077Z,13.90
2018-12-29T19:41:55.057Z,14.60
2018-12-29T19:44:41.426Z,14.70
2018-12-29T19:47:40.152Z,13.53
2018-12-29T19:50:14.416Z,12.40
2018-12-29T19:52:42.115Z,14.23
2018-12-29T19:55:09.659Z,12.67
2018-12-29T19:57:37.251Z,12.90
2018-12-29T20:00:46.010Z,13.17
2018-12-29T20:03:21.852Z,13.23
2018-12-29T20:06:00.472Z,13.70
2018-12-29T20:08:59.126Z,12.50
2018-12-29T20:11:45.833Z,12.30
2018-12-29T20:14:13.288Z,13.30
2018-12-29T20:16:40.821Z,13.30
2018-12-29T20:19:08.457Z,15.33
2018-12-29T20:21:55.540Z,13.90
2018-12-29T20:24:22.990Z,12.50
2018-12-29T20:26:50.172Z,13.30
2018-12-29T20:29:17.375Z,12.07
2018-12-29T20:37:46.902Z,12.93
2018-12-29T20:40:14.070Z,12.43
2018-12-29T20:42:41.612Z,13.90
2018-12-29T20:45:49.530Z,14.67
2018-12-29T20:48:16.628Z,12.90
2018-12-29T20:51:24.626Z,12.67
2018-12-29T20:53:52.262Z,12.73
2018-12-29T20:56:19.444Z,11.97
2018-12-29T21:02:00.036Z,11.40
2018-12-29T21:08:00.728Z,11.13
2018-12-29T21:10:27.933Z,11.30
2018-12-29T21:12:55.018Z,10.67
2018-12-29T21:15:33.757Z,10.27
2018-12-29T21:21:34.613Z,9.47
2018-12-29T21:24:02.189Z,9.43
2018-12-29T21:26:29.445Z,8.37
2018-12-29T21:29:16.563Z,10.40
2018-12-29T21:32:03.233Z,8.90
2018-12-29T21:34:30.465Z,7.70
2018-12-29T21:37:19.815Z,9.80
2018-12-29T21:39:47.814Z,8.53
2018-12-29T21:42:15.035Z,8.50
2018-12-29T21:44:42.268Z,9.33
2018-12-29T21:47:31.221Z,7.40
2018-12-29T21:49:58.429Z,6.50
2018-12-29T21:52:45.116Z,7.20
2018-12-29T21:55:12.574Z,7.87
2018-12-29T21:57:39.771Z,7.30
2018-12-29T22:00:48.124Z,6.70
2018-12-29T22:03:15.190Z,6.13
2018-12-29T22:06:02.030Z,6.30
2018-12-29T22:12:03.083Z,7.03
2018-12-29T22:14:38.637Z,6.70
2018-12-29T22:17:17.740Z,6.03
2018-12-29T22:19:44.936Z,5.77
2018-12-29T22:22:31.703Z,6.33
2018-12-29T22:24:58.947Z,5.63
2018-12-29T22:28:06.964Z,5.67
2018-12-29T22:30:34.180Z,5.90
2018-12-29T22:33:01.382Z,5.07
2018-12-29T22:38:29.484Z,4.97
2018-12-29T22:40:57.085Z,4.93
2018-12-29T22:43:43.768Z,4.30
2018-12-29T22:46:10.939Z,4.97
2018-12-29T22:48:38.136Z,4.97
2018-12-29T22:51:05.675Z,5.20
2018-12-29T22:53:32.883Z,5.20
2018-12-29T22:56:00.092Z,4.00
2018-12-29T23:04:09.108Z,5.00
2018-12-29T23:06:38.126Z,4.87
2018-12-29T23:09:17.255Z,4.30
2018-12-29T23:11:44.459Z,4.30
2018-12-29T23:14:11.643Z,5.23
2018-12-29T23:16:50.796Z,5.77
2018-12-29T23:19:17.974Z,4.30
2018-12-29T23:22:04.761Z,5.33
2018-12-29T23:27:52.249Z,5.40
2018-12-29T23:30:19.809Z,4.80
2018-12-29T23:33:30.190Z,6.17
2018-12-29T23:39:09.786Z,5.17
2018-12-29T23:47:39.283Z,5.37
2018-12-29T23:53:08.410Z,5.27
2018-12-29T23:56:06.513Z,5.23
2018-12-29T23:58:33.757Z,5.50
